createdAt,value
2016-08-27T00:00:56.297Z,24.89
2016-08-27T00:01:55.559Z,24.89
2016-08-27T00:02:56.258Z,24.98
2016-08-27T00:03:56.247Z,24.86
2016-08-27T00:04:56.231Z,24.93
2016-08-27T00:05:56.203Z,24.94
2016-08-27T00:06:55.487Z,24.82
2016-08-27T00:07:55.472Z,24.83
2016-08-27T00:08:56.169Z,24.8
2016-08-27T00:09:56.152Z,24.83
2016-08-27T00:10:56.138Z,24.84
2016-08-27T00:11:56.128Z,24.8
2016-08-27T00:12:56.107Z,24.84
2016-08-27T00:13:56.100Z,24.86
2016-08-27T00:14:56.080Z,24.84
2016-08-27T00:15:55.367Z,24.83
2016-08-27T00:16:56.052Z,24.82
2016-08-27T00:17:56.040Z,24.83
2016-08-27T00:18:56.031Z,24.84
2016-08-27T00:19:56.009Z,24.82
2016-08-27T00:20:55.998Z,24.83
2016-08-27T00:21:55.983Z,24.92
2016-08-27T00:22:55.968Z,24.8
2016-08-27T00:23:55.954Z,24.9
2016-08-27T00:24:55.940Z,24.8
2016-08-27T00:25:55.925Z,24.8
2016-08-27T00:26:55.911Z,24.77
2016-08-27T00:27:55.898Z,24.79
2016-08-27T00:28:55.887Z,24.79
2016-08-27T00:29:55.865Z,24.92
2016-08-27T00:30:55.853Z,24.8
2016-08-27T00:31:55.837Z,24.9
2016-08-27T00:32:55.828Z,24.79
2016-08-27T00:33:55.809Z,24.8
2016-08-27T00:34:55.787Z,24.75
2016-08-27T00:35:55.786Z,24.82
2016-08-27T00:36:55.055Z,24.87
2016-08-27T00:37:55.747Z,24.75
2016-08-27T00:38:55.741Z,24.89
2016-08-27T00:39:55.007Z,24.84
2016-08-27T00:40:55.710Z,24.71
2016-08-27T00:41:55.695Z,24.77
2016-08-27T00:42:55.688Z,24.8
2016-08-27T00:43:55.669Z,24.71
2016-08-27T00:44:55.654Z,24.75
2016-08-27T00:45:54.940Z,24.89
2016-08-27T00:46:55.628Z,24.82
2016-08-27T00:47:55.604Z,24.77
2016-08-27T00:48:55.597Z,24.77
2016-08-27T00:49:55.596Z,24.74
2016-08-27T00:50:54.869Z,24.79
2016-08-27T00:51:54.843Z,24.74
2016-08-27T00:52:55.537Z,24.74
2016-08-27T00:53:55.527Z,24.77
2016-08-27T00:54:55.508Z,24.64
2016-08-27T00:55:55.492Z,24.74
2016-08-27T00:56:55.478Z,24.74
2016-08-27T00:57:55.470Z,24.77
2016-08-27T00:58:54.733Z,24.66
2016-08-27T00:59:55.438Z,24.75
2016-08-27T01:00:55.419Z,24.79
2016-08-27T01:01:55.407Z,24.8
2016-08-27T01:02:55.390Z,24.75
2016-08-27T01:03:55.381Z,24.75
2016-08-27T01:04:55.364Z,24.75
2016-08-27T01:05:55.357Z,24.79
2016-08-27T01:06:55.361Z,24.75
2016-08-27T01:07:55.321Z,24.67
2016-08-27T01:08:54.595Z,24.63
2016-08-27T01:09:55.290Z,24.74
2016-08-27T01:10:55.274Z,24.59
2016-08-27T01:11:54.550Z,24.67
2016-08-27T01:12:55.259Z,24.67
2016-08-27T01:13:55.235Z,24.67
2016-08-27T01:14:55.215Z,24.64
2016-08-27T01:15:55.203Z,24.66
2016-08-27T01:16:55.187Z,24.61
2016-08-27T01:17:55.178Z,24.66
2016-08-27T01:18:55.164Z,24.7
2016-08-27T01:19:55.146Z,24.55
2016-08-27T01:20:55.152Z,24.67
2016-08-27T01:21:55.121Z,24.6
2016-08-27T01:22:55.114Z,24.67
2016-08-27T01:23:55.094Z,24.66
2016-08-27T01:24:55.080Z,24.6
2016-08-27T01:25:55.066Z,24.61
2016-08-27T01:26:55.047Z,24.6
2016-08-27T01:27:55.032Z,24.51
2016-08-27T01:28:55.016Z,24.53
2016-08-27T01:29:54.999Z,24.61
2016-08-27T01:30:54.985Z,24.53
2016-08-27T01:31:54.968Z,24.6
2016-08-27T01:32:54.242Z,24.6
2016-08-27T01:33:54.944Z,24.6
2016-08-27T01:34:54.928Z,24.66
2016-08-27T01:35:54.205Z,24.61
2016-08-27T01:36:54.901Z,24.61
2016-08-27T01:37:54.173Z,24.56
2016-08-27T01:38:54.876Z,24.59
2016-08-27T01:39:54.155Z,24.55
2016-08-27T01:40:54.838Z,24.6
2016-08-27T01:41:54.825Z,24.59
2016-08-27T01:42:54.815Z,24.59
2016-08-27T01:43:54.799Z,24.55
2016-08-27T01:44:54.783Z,24.6
2016-08-27T01:45:54.767Z,24.53
2016-08-27T01:46:54.753Z,24.46
2016-08-27T01:47:54.740Z,24.48
2016-08-27T01:48:54.721Z,24.51
2016-08-27T01:49:54.711Z,24.55
2016-08-27T01:50:54.705Z,24.52
2016-08-27T01:51:54.676Z,24.48
2016-08-27T01:52:54.671Z,24.46
2016-08-27T01:53:53.947Z,24.49
2016-08-27T01:54:54.639Z,24.46
2016-08-27T01:55:54.623Z,24.48
2016-08-27T01:56:54.606Z,24.46
2016-08-27T01:57:54.589Z,24.48
2016-08-27T01:58:54.586Z,24.48
2016-08-27T01:59:54.570Z,24.44
2016-08-27T02:00:54.553Z,24.46
2016-08-27T02:01:54.534Z,24.45
2016-08-27T02:02:54.529Z,24.45
2016-08-27T02:03:54.504Z,24.49
2016-08-27T02:04:53.785Z,24.46
2016-08-27T02:05:54.475Z,24.46
2016-08-27T02:06:54.460Z,24.48
2016-08-27T02:07:54.453Z,24.46
2016-08-27T02:08:53.726Z,24.41
2016-08-27T02:09:54.413Z,24.37
2016-08-27T02:10:54.408Z,24.33
2016-08-27T02:11:54.396Z,24.44
2016-08-27T02:12:53.663Z,24.39
2016-08-27T02:13:54.367Z,24.48
2016-08-27T02:14:54.336Z,24.39
2016-08-27T02:15:54.332Z,24.37
2016-08-27T02:16:54.319Z,24.41
2016-08-27T02:17:54.296Z,24.44
2016-08-27T02:18:54.283Z,24.46
2016-08-27T02:19:54.274Z,24.46
2016-08-27T02:20:54.257Z,24.44
2016-08-27T02:21:54.236Z,24.36
2016-08-27T02:22:54.223Z,24.31
2016-08-27T02:23:54.207Z,24.42
2016-08-27T02:24:54.192Z,24.29
2016-08-27T02:25:54.186Z,24.42
2016-08-27T02:26:54.168Z,24.36
2016-08-27T02:27:54.154Z,24.42
2016-08-27T02:28:54.141Z,24.36
2016-08-27T02:29:54.125Z,24.31
2016-08-27T02:30:54.111Z,24.29
2016-08-27T02:31:54.096Z,24.41
2016-08-27T02:32:53.377Z,24.39
2016-08-27T02:33:53.374Z,24.27
2016-08-27T02:34:54.057Z,24.31
2016-08-27T02:35:53.326Z,24.27
2016-08-27T02:36:54.025Z,24.31
2016-08-27T02:37:54.016Z,24.3
2016-08-27T02:38:53.996Z,24.27
2016-08-27T02:39:53.983Z,24.26
2016-08-27T02:40:53.960Z,24.26
2016-08-27T02:41:53.945Z,24.27
2016-08-27T02:42:53.932Z,24.3
2016-08-27T02:43:53.914Z,24.3
2016-08-27T02:44:53.917Z,24.31
2016-08-27T02:45:53.884Z,24.27
2016-08-27T02:46:53.876Z,24.27
2016-08-27T02:47:53.861Z,24.27
2016-08-27T02:48:53.856Z,24.3
2016-08-27T02:49:53.831Z,24.23
2016-08-27T02:50:53.817Z,24.26
2016-08-27T02:51:53.799Z,24.26
2016-08-27T02:52:53.787Z,24.21
2016-08-27T02:53:53.770Z,24.26
2016-08-27T02:54:53.766Z,24.24
2016-08-27T02:55:53.740Z,24.23
2016-08-27T02:56:53.727Z,24.21
2016-08-27T02:57:53.709Z,24.24
2016-08-27T02:58:53.696Z,24.26
2016-08-27T02:59:53.678Z,24.26
2016-08-27T03:00:53.672Z,24.21
2016-08-27T03:01:53.650Z,24.15
2016-08-27T03:02:53.638Z,24.18
2016-08-27T03:03:53.623Z,24.21
2016-08-27T03:04:53.613Z,24.23
2016-08-27T03:05:53.597Z,24.14
2016-08-27T03:06:53.578Z,24.18
2016-08-27T03:07:53.561Z,24.11
2016-08-27T03:08:53.553Z,24.09
2016-08-27T03:09:53.534Z,24.06
2016-08-27T03:10:53.528Z,24.15
2016-08-27T03:11:53.512Z,24.14
2016-08-27T03:12:53.493Z,24.24
2016-08-27T03:13:53.473Z,24.12
2016-08-27T03:14:53.452Z,24.15
2016-08-27T03:15:53.443Z,24.14
2016-08-27T03:16:53.436Z,24.08
2016-08-27T03:17:53.422Z,24.21
2016-08-27T03:18:53.398Z,24.12
2016-08-27T03:19:53.382Z,24.19
2016-08-27T03:20:53.376Z,24.09
2016-08-27T03:21:53.358Z,24.11
2016-08-27T03:22:53.347Z,24.06
2016-08-27T03:23:53.330Z,24.15
2016-08-27T03:24:53.308Z,24.05
2016-08-27T03:25:53.293Z,24.12
2016-08-27T03:26:53.288Z,24.05
2016-08-27T03:27:53.263Z,24.12
2016-08-27T03:28:53.258Z,24.15
2016-08-27T03:29:52.524Z,24.11
2016-08-27T03:30:53.221Z,24.06
2016-08-27T03:31:52.500Z,24.14
2016-08-27T03:32:53.190Z,24.15
2016-08-27T03:33:53.179Z,24
2016-08-27T03:34:53.178Z,24.08
2016-08-27T03:35:53.165Z,24.15
2016-08-27T03:36:53.142Z,24.09
2016-08-27T03:37:53.116Z,24.14
2016-08-27T03:38:53.108Z,24.08
2016-08-27T03:39:53.087Z,24.09
2016-08-27T03:40:53.074Z,24.12
2016-08-27T03:41:53.059Z,24.09
2016-08-27T03:42:53.051Z,24.06
2016-08-27T03:43:52.323Z,24.04
2016-08-27T03:44:53.032Z,24.05
2016-08-27T03:45:53.003Z,23.92
2016-08-27T03:46:52.987Z,23.99
2016-08-27T03:47:52.260Z,24
2016-08-27T03:48:52.971Z,23.92
2016-08-27T03:49:52.942Z,24
2016-08-27T03:50:52.931Z,23.99
2016-08-27T03:51:52.199Z,24.05
2016-08-27T03:52:52.898Z,24.02
2016-08-27T03:53:52.878Z,23.87
2016-08-27T03:54:52.876Z,24.08
2016-08-27T03:55:52.849Z,23.99
2016-08-27T03:56:52.840Z,23.99
2016-08-27T03:57:52.819Z,23.97
2016-08-27T03:58:52.798Z,24
2016-08-27T03:59:52.082Z,23.94
2016-08-27T04:00:52.790Z,24
2016-08-27T04:01:52.759Z,23.99
2016-08-27T04:02:52.754Z,23.93
2016-08-27T04:03:52.019Z,24
2016-08-27T04:04:52.723Z,23.94
2016-08-27T04:05:52.705Z,23.93
2016-08-27T04:06:52.689Z,23.92
2016-08-27T04:07:52.676Z,23.93
2016-08-27T04:08:52.663Z,23.9
2016-08-27T04:09:52.646Z,23.9
2016-08-27T04:10:51.926Z,23.87
2016-08-27T04:11:52.610Z,23.86
2016-08-27T04:12:52.591Z,23.93
2016-08-27T04:13:52.581Z,23.84
2016-08-27T04:14:51.884Z,23.9
2016-08-27T04:15:52.549Z,23.94
2016-08-27T04:16:52.539Z,23.86
2016-08-27T04:17:51.818Z,23.94
2016-08-27T04:18:52.513Z,23.89
2016-08-27T04:19:52.502Z,23.92
2016-08-27T04:20:52.485Z,23.94
2016-08-27T04:21:52.463Z,23.94
2016-08-27T04:22:52.449Z,23.89
2016-08-27T04:23:52.435Z,23.92
2016-08-27T04:24:52.414Z,23.92
2016-08-27T04:25:51.693Z,23.87
2016-08-27T04:26:52.389Z,23.86
2016-08-27T04:27:52.369Z,23.89
2016-08-27T04:28:52.363Z,23.82
2016-08-27T04:29:52.345Z,23.84
2016-08-27T04:30:52.324Z,23.86
2016-08-27T04:31:52.308Z,23.81
2016-08-27T04:32:52.294Z,23.84
2016-08-27T04:33:52.277Z,23.81
2016-08-27T04:34:51.559Z,23.87
2016-08-27T04:35:52.248Z,23.89
2016-08-27T04:36:52.234Z,23.82
2016-08-27T04:37:52.224Z,23.9
2016-08-27T04:38:52.212Z,23.81
2016-08-27T04:39:51.484Z,23.79
2016-08-27T04:40:51.472Z,23.81
2016-08-27T04:41:52.164Z,23.89
2016-08-27T04:42:52.147Z,23.87
2016-08-27T04:43:52.144Z,23.92
2016-08-27T04:44:52.112Z,23.87
2016-08-27T04:45:52.097Z,23.9
2016-08-27T04:46:52.092Z,23.79
2016-08-27T04:47:52.072Z,23.79
2016-08-27T04:48:52.059Z,23.74
2016-08-27T04:49:52.040Z,23.77
2016-08-27T04:50:52.033Z,23.74
2016-08-27T04:51:52.037Z,23.79
2016-08-27T04:52:52.000Z,23.69
2016-08-27T04:53:51.990Z,23.79
2016-08-27T04:54:51.253Z,23.79
2016-08-27T04:55:51.953Z,23.81
2016-08-27T04:56:51.946Z,23.74
2016-08-27T04:57:51.918Z,23.78
2016-08-27T04:58:51.925Z,23.74
2016-08-27T04:59:51.889Z,23.81
2016-08-27T05:00:51.874Z,23.78
2016-08-27T05:01:51.855Z,23.78
2016-08-27T05:02:51.852Z,23.82
2016-08-27T05:03:51.831Z,23.77
2016-08-27T05:04:51.816Z,23.79
2016-08-27T05:05:51.814Z,23.75
2016-08-27T05:06:51.794Z,23.77
2016-08-27T05:07:51.770Z,23.77
2016-08-27T05:08:51.752Z,23.79
2016-08-27T05:09:51.746Z,23.75
2016-08-27T05:10:51.020Z,23.81
2016-08-27T05:11:51.013Z,23.77
2016-08-27T05:12:51.705Z,23.69
2016-08-27T05:13:51.681Z,23.79
2016-08-27T05:14:50.964Z,23.79
2016-08-27T05:15:51.652Z,23.69
2016-08-27T05:16:51.637Z,23.69
2016-08-27T05:17:51.620Z,23.67
2016-08-27T05:18:50.897Z,23.67
2016-08-27T05:19:51.588Z,23.77
2016-08-27T05:20:51.568Z,23.75
2016-08-27T05:21:51.567Z,23.72
2016-08-27T05:22:51.544Z,23.79
2016-08-27T05:23:51.545Z,23.89
2016-08-27T05:24:51.523Z,23.86
2016-08-27T05:25:51.503Z,23.87
2016-08-27T05:26:51.485Z,23.92
2016-08-27T05:27:51.469Z,23.9
2016-08-27T05:28:51.451Z,23.86
2016-08-27T05:29:51.439Z,23.87
2016-08-27T05:30:51.432Z,23.9
2016-08-27T05:31:51.413Z,23.82
2016-08-27T05:32:51.397Z,23.92
2016-08-27T05:33:51.383Z,23.9
2016-08-27T05:34:51.371Z,23.94
2016-08-27T05:35:51.354Z,23.87
2016-08-27T05:36:50.630Z,23.96
2016-08-27T05:37:51.334Z,23.97
2016-08-27T05:38:51.307Z,23.92
2016-08-27T05:39:51.295Z,24
2016-08-27T05:40:51.276Z,23.92
2016-08-27T05:41:50.553Z,24
2016-08-27T05:42:50.536Z,23.99
2016-08-27T05:43:50.518Z,23.9
2016-08-27T05:44:51.210Z,24
2016-08-27T05:45:51.194Z,23.94
2016-08-27T05:46:51.203Z,23.94
2016-08-27T05:47:50.465Z,24
2016-08-27T05:48:51.152Z,24
2016-08-27T05:49:51.147Z,24.04
2016-08-27T05:50:51.129Z,23.99
2016-08-27T05:51:51.111Z,23.99
2016-08-27T05:52:51.092Z,23.99
2016-08-27T05:53:50.373Z,23.96
2016-08-27T05:54:51.069Z,24.05
2016-08-27T05:55:51.047Z,23.97
2016-08-27T05:56:51.037Z,23.92
2016-08-27T05:57:51.020Z,24.04
2016-08-27T05:58:51.003Z,24
2016-08-27T05:59:50.993Z,23.9
2016-08-27T06:00:50.980Z,24.04
2016-08-27T06:01:50.247Z,24.05
2016-08-27T06:02:50.944Z,24.06
2016-08-27T06:03:50.931Z,23.97
2016-08-27T06:04:50.927Z,24.05
2016-08-27T06:05:50.908Z,24.08
2016-08-27T06:06:50.878Z,24.08
2016-08-27T06:07:50.868Z,24.02
2016-08-27T06:08:50.859Z,24.04
2016-08-27T06:09:50.846Z,24.05
2016-08-27T06:10:50.825Z,24.06
2016-08-27T06:11:50.817Z,24.14
2016-08-27T06:12:50.794Z,24.08
2016-08-27T06:13:50.778Z,24.06
2016-08-27T06:14:50.763Z,24.11
2016-08-27T06:15:50.756Z,24.06
2016-08-27T06:16:50.729Z,24.02
2016-08-27T06:17:50.720Z,24.05
2016-08-27T06:18:50.700Z,24.05
2016-08-27T06:19:50.692Z,24.12
2016-08-27T06:20:50.675Z,24.11
2016-08-27T06:21:50.657Z,24.12
2016-08-27T06:22:50.641Z,24.05
2016-08-27T06:23:50.628Z,24.12
2016-08-27T06:24:50.605Z,24.04
2016-08-27T06:25:50.603Z,24.02
2016-08-27T06:26:50.585Z,24.15
2016-08-27T06:27:50.580Z,24.18
2016-08-27T06:28:50.565Z,24.11
2016-08-27T06:29:50.537Z,24.16
2016-08-27T06:30:50.520Z,24.23
2016-08-27T06:31:50.510Z,24.19
2016-08-27T06:32:50.498Z,24.21
2016-08-27T06:33:50.479Z,24.12
2016-08-27T06:34:50.465Z,24.14
2016-08-27T06:35:49.742Z,24.21
2016-08-27T06:36:50.445Z,24.23
2016-08-27T06:37:50.422Z,24.15
2016-08-27T06:38:50.406Z,24.15
2016-08-27T06:39:50.394Z,24.24
2016-08-27T06:40:50.376Z,24.15
2016-08-27T06:41:50.359Z,24.26
2016-08-27T06:42:50.342Z,24.09
2016-08-27T06:43:50.333Z,24.14
2016-08-27T06:44:50.317Z,24.08
2016-08-27T06:45:49.591Z,24.08
2016-08-27T06:46:50.286Z,23.99
2016-08-27T06:47:50.273Z,24.08
2016-08-27T06:48:49.556Z,24.09
2016-08-27T06:49:50.245Z,24.14
2016-08-27T06:50:50.221Z,23.97
2016-08-27T06:51:50.211Z,23.9
2016-08-27T06:52:50.208Z,23.94
2016-08-27T06:53:50.204Z,23.96
2016-08-27T06:54:50.169Z,23.9
2016-08-27T06:55:50.156Z,23.93
2016-08-27T06:56:50.130Z,23.96
2016-08-27T06:57:50.126Z,23.89
2016-08-27T06:58:50.115Z,23.99
2016-08-27T06:59:50.091Z,23.9
2016-08-27T07:00:50.090Z,23.89
2016-08-27T07:01:50.063Z,23.79
2016-08-27T07:02:50.047Z,23.82
2016-08-27T07:03:50.045Z,23.81
2016-08-27T07:04:49.311Z,23.79
2016-08-27T07:05:50.011Z,23.74
2016-08-27T07:06:49.989Z,23.78
2016-08-27T07:07:49.266Z,23.77
2016-08-27T07:08:49.955Z,23.79
2016-08-27T07:09:49.946Z,23.77
2016-08-27T07:10:49.924Z,23.77
2016-08-27T07:11:49.906Z,23.67
2016-08-27T07:12:49.910Z,23.69
2016-08-27T07:13:49.879Z,23.79
2016-08-27T07:14:49.867Z,23.75
2016-08-27T07:15:49.855Z,23.82
2016-08-27T07:16:49.832Z,23.79
2016-08-27T07:17:49.815Z,23.79
2016-08-27T07:18:49.797Z,23.82
2016-08-27T07:19:49.791Z,23.75
2016-08-27T07:20:49.783Z,23.77
2016-08-27T07:21:49.756Z,23.84
2016-08-27T07:22:49.751Z,23.86
2016-08-27T07:23:49.732Z,23.86
2016-08-27T07:24:49.716Z,23.87
2016-08-27T07:25:49.699Z,23.89
2016-08-27T07:26:49.680Z,23.81
2016-08-27T07:27:49.671Z,23.71
2016-08-27T07:28:48.938Z,23.74
2016-08-27T07:29:49.639Z,23.67
2016-08-27T07:30:49.626Z,23.69
2016-08-27T07:31:49.604Z,23.78
2016-08-27T07:32:49.593Z,23.71
2016-08-27T07:33:49.572Z,23.74
2016-08-27T07:34:49.558Z,23.77
2016-08-27T07:35:48.838Z,23.82
2016-08-27T07:36:49.522Z,23.77
2016-08-27T07:37:49.517Z,23.78
2016-08-27T07:38:49.500Z,23.86
2016-08-27T07:39:49.486Z,23.78
2016-08-27T07:40:49.472Z,23.84
2016-08-27T07:41:49.455Z,23.9
2016-08-27T07:42:49.443Z,23.94
2016-08-27T07:43:49.423Z,23.9
2016-08-27T07:44:49.411Z,23.92
2016-08-27T07:45:49.399Z,24.11
2016-08-27T07:46:49.386Z,24.14
2016-08-27T07:47:49.360Z,23.97
2016-08-27T07:48:49.343Z,24.08
2016-08-27T07:49:49.330Z,24.11
2016-08-27T07:50:49.319Z,24.05
2016-08-27T07:51:49.295Z,24.09
2016-08-27T07:52:49.287Z,24.15
2016-08-27T07:53:49.268Z,24.12
2016-08-27T07:54:49.259Z,24.21
2016-08-27T07:55:49.241Z,24.14
2016-08-27T07:56:49.240Z,24.14
2016-08-27T07:57:49.206Z,24.21
2016-08-27T07:58:49.199Z,24.19
2016-08-27T07:59:49.182Z,24.21
2016-08-27T08:00:49.172Z,24.24
2016-08-27T08:01:49.152Z,24.09
2016-08-27T08:02:49.140Z,24.18
2016-08-27T08:03:49.119Z,24.26
2016-08-27T08:04:49.110Z,24.18
2016-08-27T08:05:49.091Z,24.19
2016-08-27T08:06:49.076Z,24.26
2016-08-27T08:07:49.052Z,24.26
2016-08-27T08:08:49.059Z,24.27
2016-08-27T08:09:49.030Z,24.29
2016-08-27T08:10:49.021Z,24.34
2016-08-27T08:11:48.995Z,24.21
2016-08-27T08:12:48.284Z,24.3
2016-08-27T08:13:48.963Z,24.27
2016-08-27T08:14:48.954Z,24.26
2016-08-27T08:15:48.949Z,24.27
2016-08-27T08:16:48.924Z,24.3
2016-08-27T08:17:48.910Z,24.29
2016-08-27T08:18:48.197Z,24.3
2016-08-27T08:19:48.180Z,24.36
2016-08-27T08:20:48.860Z,24.29
2016-08-27T08:21:48.848Z,24.39
2016-08-27T08:22:48.844Z,24.37
2016-08-27T08:23:48.830Z,24.41
2016-08-27T08:24:48.807Z,24.29
2016-08-27T08:25:48.792Z,24.34
2016-08-27T08:26:48.778Z,24.42
2016-08-27T08:27:48.758Z,24.33
2016-08-27T08:28:48.044Z,24.37
2016-08-27T08:29:48.733Z,24.41
2016-08-27T08:30:48.721Z,24.36
2016-08-27T08:31:48.003Z,24.39
2016-08-27T08:32:48.703Z,24.41
2016-08-27T08:33:47.969Z,24.48
2016-08-27T08:34:48.658Z,24.49
2016-08-27T08:35:48.645Z,24.45
2016-08-27T08:36:48.630Z,24.45
2016-08-27T08:37:48.622Z,24.46
2016-08-27T08:38:48.599Z,24.44
2016-08-27T08:39:47.865Z,24.44
2016-08-27T08:40:48.574Z,24.45
2016-08-27T08:41:48.553Z,24.46
2016-08-27T08:42:48.535Z,24.49
2016-08-27T08:43:48.516Z,24.44
2016-08-27T08:44:48.509Z,24.45
2016-08-27T08:45:48.487Z,24.48
2016-08-27T08:46:48.479Z,24.46
2016-08-27T08:47:48.469Z,24.46
2016-08-27T08:48:48.440Z,24.48
2016-08-27T08:49:48.430Z,24.49
2016-08-27T08:50:48.422Z,24.44
2016-08-27T08:51:48.403Z,24.51
2016-08-27T08:52:47.677Z,24.44
2016-08-27T08:53:48.372Z,24.49
2016-08-27T08:54:48.356Z,24.48
2016-08-27T08:55:48.358Z,24.46
2016-08-27T08:56:48.335Z,24.46
2016-08-27T08:57:47.606Z,24.44
2016-08-27T08:58:48.292Z,24.44
2016-08-27T08:59:48.289Z,24.51
2016-08-27T09:00:48.271Z,24.44
2016-08-27T09:01:48.250Z,24.48
2016-08-27T09:02:48.244Z,24.53
2016-08-27T09:03:48.222Z,24.46
2016-08-27T09:04:48.215Z,24.51
2016-08-27T09:05:48.194Z,24.6
2016-08-27T09:06:47.466Z,24.52
2016-08-27T09:07:48.164Z,24.49
2016-08-27T09:08:48.147Z,24.55
2016-08-27T09:09:48.140Z,24.56
2016-08-27T09:10:48.116Z,24.52
2016-08-27T09:11:47.400Z,24.56
2016-08-27T09:12:47.380Z,24.61
2016-08-27T09:13:48.078Z,24.56
2016-08-27T09:14:48.067Z,24.49
2016-08-27T09:15:48.052Z,24.59
2016-08-27T09:16:48.036Z,24.55
2016-08-27T09:17:48.019Z,24.53
2016-08-27T09:18:47.297Z,24.53
2016-08-27T09:19:47.982Z,24.6
2016-08-27T09:20:47.263Z,24.49
2016-08-27T09:21:47.962Z,24.59
2016-08-27T09:22:47.946Z,24.6
2016-08-27T09:23:47.924Z,24.56
2016-08-27T09:24:47.909Z,24.63
2016-08-27T09:25:47.898Z,24.6
2016-08-27T09:26:47.890Z,24.52
2016-08-27T09:27:47.879Z,24.61
2016-08-27T09:28:47.865Z,24.56
2016-08-27T09:29:47.840Z,24.51
2016-08-27T09:30:47.840Z,24.64
2016-08-27T09:31:47.817Z,24.68
2016-08-27T09:32:47.097Z,24.61
2016-08-27T09:33:47.786Z,24.55
2016-08-27T09:34:47.781Z,24.6
2016-08-27T09:35:47.748Z,24.61
2016-08-27T09:36:47.740Z,24.61
2016-08-27T09:37:47.719Z,24.66
2016-08-27T09:38:47.710Z,24.61
2016-08-27T09:39:47.695Z,24.63
2016-08-27T09:40:47.692Z,24.63
2016-08-27T09:41:47.664Z,24.67
2016-08-27T09:42:47.643Z,24.61
2016-08-27T09:43:47.636Z,24.64
2016-08-27T09:44:47.618Z,24.64
2016-08-27T09:45:47.609Z,24.64
2016-08-27T09:46:47.589Z,24.64
2016-08-27T09:47:46.864Z,24.6
2016-08-27T09:48:47.559Z,24.67
2016-08-27T09:49:47.549Z,24.67
2016-08-27T09:50:47.529Z,24.67
2016-08-27T09:51:47.517Z,24.7
2016-08-27T09:52:47.502Z,24.59
2016-08-27T09:53:47.489Z,24.66
2016-08-27T09:54:47.474Z,24.64
2016-08-27T09:55:47.457Z,24.68
2016-08-27T09:56:47.439Z,24.7
2016-08-27T09:57:47.428Z,24.64
2016-08-27T09:58:47.415Z,24.67
2016-08-27T09:59:47.402Z,24.64
2016-08-27T10:00:47.384Z,24.67
2016-08-27T10:01:47.367Z,24.68
2016-08-27T10:02:47.350Z,24.66
2016-08-27T10:03:47.345Z,24.63
2016-08-27T10:04:47.321Z,24.63
2016-08-27T10:05:47.313Z,24.67
2016-08-27T10:06:46.582Z,24.63
2016-08-27T10:07:47.283Z,24.74
2016-08-27T10:08:47.264Z,24.64
2016-08-27T10:09:47.254Z,24.63
2016-08-27T10:10:47.233Z,24.64
2016-08-27T10:11:46.515Z,24.68
2016-08-27T10:12:47.202Z,24.74
2016-08-27T10:13:47.197Z,24.7
2016-08-27T10:14:47.186Z,24.63
2016-08-27T10:15:47.160Z,24.64
2016-08-27T10:16:47.146Z,24.63
2016-08-27T10:17:47.134Z,24.77
2016-08-27T10:18:47.117Z,24.74
2016-08-27T10:19:47.100Z,24.75
2016-08-27T10:20:47.087Z,24.77
2016-08-27T10:21:47.073Z,24.79
2016-08-27T10:22:47.062Z,24.75
2016-08-27T10:23:47.048Z,24.79
2016-08-27T10:24:47.031Z,24.71
2016-08-27T10:25:47.022Z,24.8
2016-08-27T10:26:46.291Z,24.77
2016-08-27T10:27:46.986Z,24.77
2016-08-27T10:28:46.973Z,24.83
2016-08-27T10:29:46.954Z,24.79
2016-08-27T10:30:46.945Z,24.8
2016-08-27T10:31:46.931Z,24.74
2016-08-27T10:32:46.209Z,24.77
2016-08-27T10:33:46.898Z,24.77
2016-08-27T10:34:46.894Z,24.77
2016-08-27T10:35:46.168Z,24.82
2016-08-27T10:36:46.865Z,24.77
2016-08-27T10:37:47.004Z,24.71
2016-08-27T10:38:46.821Z,24.82
2016-08-27T10:39:46.834Z,24.83
2016-08-27T10:40:46.805Z,24.79
2016-08-27T10:41:46.781Z,24.77
2016-08-27T10:42:46.756Z,24.8
2016-08-27T10:43:46.749Z,24.74
2016-08-27T10:44:46.024Z,24.8
2016-08-27T10:45:46.722Z,24.75
2016-08-27T10:46:46.705Z,24.79
2016-08-27T10:47:46.694Z,24.8
2016-08-27T10:48:46.672Z,24.8
2016-08-27T10:49:46.681Z,24.84
2016-08-27T10:50:46.652Z,24.79
2016-08-27T10:51:46.637Z,24.87
2016-08-27T10:52:46.619Z,24.92
2016-08-27T10:53:46.630Z,24.86
2016-08-27T10:54:46.593Z,24.87
2016-08-27T10:55:45.867Z,24.87
2016-08-27T10:56:46.565Z,24.87
2016-08-27T10:57:46.545Z,24.87
2016-08-27T10:58:45.831Z,24.75
2016-08-27T10:59:46.515Z,24.79
2016-08-27T11:00:46.506Z,24.75
2016-08-27T11:01:45.787Z,24.79
2016-08-27T11:02:46.698Z,24.87
2016-08-27T11:03:46.460Z,24.87
2016-08-27T11:04:45.744Z,24.9
2016-08-27T11:05:46.432Z,24.84
2016-08-27T11:06:45.707Z,24.82
2016-08-27T11:07:46.403Z,24.82
2016-08-27T11:08:46.383Z,24.87
2016-08-27T11:09:46.389Z,24.77
2016-08-27T11:10:46.357Z,24.86
2016-08-27T11:11:46.346Z,24.84
2016-08-27T11:12:45.617Z,24.87
2016-08-27T11:13:46.314Z,24.87
2016-08-27T11:14:45.595Z,24.82
2016-08-27T11:15:46.297Z,24.92
2016-08-27T11:16:46.275Z,24.87
2016-08-27T11:17:46.261Z,24.79
2016-08-27T11:18:46.242Z,24.86
2016-08-27T11:19:46.236Z,24.87
2016-08-27T11:20:46.215Z,24.84
2016-08-27T11:21:46.198Z,24.92
2016-08-27T11:22:45.470Z,24.92
2016-08-27T11:23:46.197Z,24.89
2016-08-27T11:24:46.160Z,24.87
2016-08-27T11:25:46.141Z,24.77
2016-08-27T11:26:46.130Z,24.87
2016-08-27T11:27:46.124Z,24.9
2016-08-27T11:28:46.100Z,24.8
2016-08-27T11:29:46.071Z,24.83
2016-08-27T11:30:46.077Z,24.89
2016-08-27T11:31:46.052Z,24.8
2016-08-27T11:32:46.035Z,24.82
2016-08-27T11:33:46.025Z,24.84
2016-08-27T11:34:46.023Z,24.86
2016-08-27T11:35:46.000Z,24.83
2016-08-27T11:36:45.978Z,24.89
2016-08-27T11:37:45.959Z,24.93
2016-08-27T11:38:45.236Z,24.9
2016-08-27T11:39:45.941Z,24.9
2016-08-27T11:40:45.924Z,24.9
2016-08-27T11:41:45.906Z,24.9
2016-08-27T11:42:45.893Z,24.92
2016-08-27T11:43:45.885Z,24.89
2016-08-27T11:44:45.860Z,24.92
2016-08-27T11:45:45.855Z,24.93
2016-08-27T11:46:45.837Z,24.93
2016-08-27T11:47:45.106Z,24.92
2016-08-27T11:48:45.120Z,24.93
2016-08-27T11:49:45.797Z,24.86
2016-08-27T11:50:45.070Z,24.89
2016-08-27T11:51:45.762Z,24.9
2016-08-27T11:52:45.750Z,24.94
2016-08-27T11:53:45.734Z,24.93
2016-08-27T11:54:45.714Z,24.89
2016-08-27T11:55:45.708Z,24.99
2016-08-27T11:56:45.699Z,24.97
2016-08-27T11:57:45.679Z,24.87
2016-08-27T11:58:45.674Z,24.94
2016-08-27T11:59:45.643Z,24.93
2016-08-27T12:00:45.630Z,24.97
2016-08-27T12:01:45.620Z,24.97
2016-08-27T12:02:45.607Z,24.94
2016-08-27T12:03:45.602Z,24.92
2016-08-27T12:04:45.572Z,24.93
2016-08-27T12:05:44.855Z,24.92
2016-08-27T12:06:45.540Z,25.01
2016-08-27T12:07:45.527Z,24.94
2016-08-27T12:08:45.516Z,24.99
2016-08-27T12:09:45.509Z,24.97
2016-08-27T12:10:44.787Z,25.01
2016-08-27T12:11:45.477Z,24.97
2016-08-27T12:12:45.459Z,24.92
2016-08-27T12:13:45.443Z,24.93
2016-08-27T12:14:44.724Z,25.01
2016-08-27T12:15:45.417Z,24.93
2016-08-27T12:16:45.405Z,24.97
2016-08-27T12:17:45.383Z,24.9
2016-08-27T12:18:45.375Z,24.9
2016-08-27T12:19:45.359Z,24.98
2016-08-27T12:20:45.351Z,24.9
2016-08-27T12:21:45.326Z,24.99
2016-08-27T12:22:45.312Z,24.97
2016-08-27T12:23:45.301Z,24.93
2016-08-27T12:24:45.285Z,24.99
2016-08-27T12:25:45.271Z,24.99
2016-08-27T12:26:45.256Z,24.94
2016-08-27T12:27:45.242Z,24.9
2016-08-27T12:28:45.233Z,24.97
2016-08-27T12:29:45.206Z,24.98
2016-08-27T12:30:45.192Z,25.02
2016-08-27T12:31:45.182Z,24.93
2016-08-27T12:32:45.261Z,24.92
2016-08-27T12:33:45.162Z,25.02
2016-08-27T12:34:45.132Z,25.02
2016-08-27T12:35:45.128Z,24.97
2016-08-27T12:36:45.110Z,25.01
2016-08-27T12:37:45.096Z,24.94
2016-08-27T12:38:45.080Z,24.94
2016-08-27T12:39:45.070Z,25.04
2016-08-27T12:40:45.053Z,24.94
2016-08-27T12:41:45.043Z,24.98
2016-08-27T12:42:45.026Z,25.01
2016-08-27T12:43:44.298Z,24.99
2016-08-27T12:44:44.987Z,24.98
2016-08-27T12:45:44.988Z,24.98
2016-08-27T12:46:44.971Z,25.07
2016-08-27T12:47:44.956Z,25.01
2016-08-27T12:48:44.937Z,24.98
2016-08-27T12:49:44.928Z,25.07
2016-08-27T12:50:44.922Z,25.04
2016-08-27T12:51:44.899Z,24.94
2016-08-27T12:52:44.889Z,25.07
2016-08-27T12:53:44.864Z,25.04
2016-08-27T12:54:44.848Z,25.02
2016-08-27T12:55:44.827Z,25.01
2016-08-27T12:56:44.822Z,25.05